sensor_id;sensor_type;location;lat;lon;timestamp;P1;durP1;ratioP1;P2;durP2;ratioP2
66175;SDS011;52977;44.816;20.538;2024-03-25T00:00:13;16.67;;;7.40;;
66175;SDS011;52977;44.816;20.538;2024-03-25T00:02:40;15.20;;;7.72;;
66175;SDS011;52977;44.816;20.538;2024-03-25T00:05:08;12.80;;;7.15;;
66175;SDS011;52977;44.816;20.538;2024-03-25T00:07:38;13.25;;;7.03;;
66175;SDS011;52977;44.816;20.538;2024-03-25T00:10:05;12.88;;;6.75;;
66175;SDS011;52977;44.816;20.538;2024-03-25T00:12:34;13.02;;;6.97;;
66175;SDS011;52977;44.816;20.538;2024-03-25T00:15:01;12.73;;;6.57;;
66175;SDS011;52977;44.816;20.538;2024-03-25T00:17:28;14.02;;;6.63;;
66175;SDS011;52977;44.816;20.538;2024-03-25T00:19:55;17.58;;;7.78;;
66175;SDS011;52977;44.816;20.538;2024-03-25T00:22:22;14.73;;;7.95;;
66175;SDS011;52977;44.816;20.538;2024-03-25T00:24:51;16.27;;;6.85;;
66175;SDS011;52977;44.816;20.538;2024-03-25T00:27:17;13.63;;;7.15;;
66175;SDS011;52977;44.816;20.538;2024-03-25T00:29:44;17.58;;;7.30;;
66175;SDS011;52977;44.816;20.538;2024-03-25T00:32:11;14.95;;;7.20;;
66175;SDS011;52977;44.816;20.538;2024-03-25T00:34:38;14.80;;;7.10;;
66175;SDS011;52977;44.816;20.538;2024-03-25T00:37:04;21.98;;;9.50;;
66175;SDS011;52977;44.816;20.538;2024-03-25T00:39:31;18.50;;;7.90;;
66175;SDS011;52977;44.816;20.538;2024-03-25T00:42:00;20.52;;;9.00;;
66175;SDS011;52977;44.816;20.538;2024-03-25T00:44:27;15.50;;;8.10;;
66175;SDS011;52977;44.816;20.538;2024-03-25T00:46:54;17.98;;;8.00;;
66175;SDS011;52977;44.816;20.538;2024-03-25T00:49:20;18.77;;;8.40;;
66175;SDS011;52977;44.816;20.538;2024-03-25T00:51:50;17.65;;;7.78;;
66175;SDS011;52977;44.816;20.538;2024-03-25T00:54:18;17.63;;;8.55;;
66175;SDS011;52977;44.816;20.538;2024-03-25T00:56:44;13.95;;;7.38;;
66175;SDS011;52977;44.816;20.538;2024-03-25T00:59:11;16.48;;;8.07;;
66175;SDS011;52977;44.816;20.538;2024-03-25T01:01:38;15.23;;;7.95;;
66175;SDS011;52977;44.816;20.538;2024-03-25T01:04:04;18.52;;;8.05;;
66175;SDS011;52977;44.816;20.538;2024-03-25T01:06:31;19.73;;;9.25;;
66175;SDS011;52977;44.816;20.538;2024-03-25T01:08:57;21.73;;;9.60;;
66175;SDS011;52977;44.816;20.538;2024-03-25T01:11:24;18.42;;;9.52;;
66175;SDS011;52977;44.816;20.538;2024-03-25T01:13:51;18.75;;;9.35;;
66175;SDS011;52977;44.816;20.538;2024-03-25T01:16:18;23.17;;;9.77;;
66175;SDS011;52977;44.816;20.538;2024-03-25T01:18:44;20.38;;;9.43;;
66175;SDS011;52977;44.816;20.538;2024-03-25T01:21:11;18.48;;;8.50;;
66175;SDS011;52977;44.816;20.538;2024-03-25T01:23:37;21.63;;;9.00;;
66175;SDS011;52977;44.816;20.538;2024-03-25T01:26:04;22.75;;;8.50;;
66175;SDS011;52977;44.816;20.538;2024-03-25T01:28:30;20.55;;;9.05;;
66175;SDS011;52977;44.816;20.538;2024-03-25T01:30:57;20.98;;;7.95;;
66175;SDS011;52977;44.816;20.538;2024-03-25T01:33:24;17.30;;;8.60;;
66175;SDS011;52977;44.816;20.538;2024-03-25T01:35:50;20.33;;;8.85;;
66175;SDS011;52977;44.816;20.538;2024-03-25T01:38:17;21.33;;;9.18;;
66175;SDS011;52977;44.816;20.538;2024-03-25T01:40:43;23.30;;;9.00;;
66175;SDS011;52977;44.816;20.538;2024-03-25T01:43:11;21.42;;;9.18;;
66175;SDS011;52977;44.816;20.538;2024-03-25T01:45:37;20.23;;;9.05;;
66175;SDS011;52977;44.816;20.538;2024-03-25T01:48:04;19.25;;;8.30;;
66175;SDS011;52977;44.816;20.538;2024-03-25T01:50:34;22.52;;;8.70;;
66175;SDS011;52977;44.816;20.538;2024-03-25T01:53:04;22.92;;;9.02;;
66175;SDS011;52977;44.816;20.538;2024-03-25T01:55:32;18.55;;;8.48;;
66175;SDS011;52977;44.816;20.538;2024-03-25T01:58:01;22.55;;;8.60;;
66175;SDS011;52977;44.816;20.538;2024-03-25T02:00:30;22.05;;;8.75;;
66175;SDS011;52977;44.816;20.538;2024-03-25T02:02:57;21.25;;;8.95;;
66175;SDS011;52977;44.816;20.538;2024-03-25T02:05:24;21.63;;;8.30;;
66175;SDS011;52977;44.816;20.538;2024-03-25T02:07:51;19.30;;;7.97;;
66175;SDS011;52977;44.816;20.538;2024-03-25T02:10:18;21.27;;;8.88;;
66175;SDS011;52977;44.816;20.538;2024-03-25T02:12:46;19.63;;;8.63;;
66175;SDS011;52977;44.816;20.538;2024-03-25T02:15:13;18.75;;;8.52;;
66175;SDS011;52977;44.816;20.538;2024-03-25T02:17:39;22.73;;;9.05;;
66175;SDS011;52977;44.816;20.538;2024-03-25T02:20:06;24.85;;;10.00;;
66175;SDS011;52977;44.816;20.538;2024-03-25T02:22:36;19.80;;;8.60;;
66175;SDS011;52977;44.816;20.538;2024-03-25T02:25:05;22.88;;;8.55;;
66175;SDS011;52977;44.816;20.538;2024-03-25T02:27:34;18.48;;;8.48;;
66175;SDS011;52977;44.816;20.538;2024-03-25T02:30:08;19.88;;;8.23;;
66175;SDS011;52977;44.816;20.538;2024-03-25T02:32:40;23.10;;;8.38;;
66175;SDS011;52977;44.816;20.538;2024-03-25T02:35:08;18.88;;;8.07;;
66175;SDS011;52977;44.816;20.538;2024-03-25T02:37:36;19.65;;;8.13;;
66175;SDS011;52977;44.816;20.538;2024-03-25T02:40:05;21.75;;;9.27;;
66175;SDS011;52977;44.816;20.538;2024-03-25T02:42:33;20.95;;;8.18;;
66175;SDS011;52977;44.816;20.538;2024-03-25T02:45:00;18.25;;;8.38;;
66175;SDS011;52977;44.816;20.538;2024-03-25T02:47:26;23.77;;;8.35;;
66175;SDS011;52977;44.816;20.538;2024-03-25T02:49:53;17.23;;;7.30;;
66175;SDS011;52977;44.816;20.538;2024-03-25T02:52:19;22.35;;;8.35;;
66175;SDS011;52977;44.816;20.538;2024-03-25T02:54:47;18.63;;;8.05;;
66175;SDS011;52977;44.816;20.538;2024-03-25T02:57:13;18.95;;;8.13;;
66175;SDS011;52977;44.816;20.538;2024-03-25T02:59:40;18.23;;;8.60;;
66175;SDS011;52977;44.816;20.538;2024-03-25T03:02:06;19.45;;;8.77;;
66175;SDS011;52977;44.816;20.538;2024-03-25T03:04:33;18.35;;;8.25;;
66175;SDS011;52977;44.816;20.538;2024-03-25T03:07:00;19.15;;;9.18;;
66175;SDS011;52977;44.816;20.538;2024-03-25T03:09:26;21.98;;;8.50;;
66175;SDS011;52977;44.816;20.538;2024-03-25T03:11:52;20.10;;;8.77;;
66175;SDS011;52977;44.816;20.538;2024-03-25T03:14:19;19.70;;;8.60;;
66175;SDS011;52977;44.816;20.538;2024-03-25T03:16:45;19.88;;;8.65;;
66175;SDS011;52977;44.816;20.538;2024-03-25T03:19:12;15.60;;;7.97;;
66175;SDS011;52977;44.816;20.538;2024-03-25T03:21:38;20.02;;;8.43;;
66175;SDS011;52977;44.816;20.538;2024-03-25T03:24:05;18.17;;;8.77;;
66175;SDS011;52977;44.816;20.538;2024-03-25T03:26:31;21.92;;;8.10;;
66175;SDS011;52977;44.816;20.538;2024-03-25T03:28:58;19.70;;;7.28;;
66175;SDS011;52977;44.816;20.538;2024-03-25T03:31:25;17.67;;;8.05;;
66175;SDS011;52977;44.816;20.538;2024-03-25T03:33:52;18.50;;;8.60;;
66175;SDS011;52977;44.816;20.538;2024-03-25T03:36:19;18.60;;;8.80;;
66175;SDS011;52977;44.816;20.538;2024-03-25T03:38:51;15.05;;;7.05;;
66175;SDS011;52977;44.816;20.538;2024-03-25T03:41:18;21.98;;;9.55;;
66175;SDS011;52977;44.816;20.538;2024-03-25T03:43:44;18.65;;;8.25;;
66175;SDS011;52977;44.816;20.538;2024-03-25T03:46:11;18.98;;;8.68;;
66175;SDS011;52977;44.816;20.538;2024-03-25T03:48:38;22.00;;;9.15;;
66175;SDS011;52977;44.816;20.538;2024-03-25T03:51:05;20.38;;;8.77;;
66175;SDS011;52977;44.816;20.538;2024-03-25T03:53:34;22.20;;;9.68;;
66175;SDS011;52977;44.816;20.538;2024-03-25T03:56:02;16.88;;;8.98;;
66175;SDS011;52977;44.816;20.538;2024-03-25T03:58:33;21.33;;;9.02;;
66175;SDS011;52977;44.816;20.538;2024-03-25T04:01:00;22.73;;;9.38;;
66175;SDS011;52977;44.816;20.538;2024-03-25T04:03:27;19.77;;;8.63;;
66175;SDS011;52977;44.816;20.538;2024-03-25T04:05:53;17.50;;;8.02;;
66175;SDS011;52977;44.816;20.538;2024-03-25T04:08:19;20.52;;;9.13;;
66175;SDS011;52977;44.816;20.538;2024-03-25T04:10:46;20.13;;;8.70;;
66175;SDS011;52977;44.816;20.538;2024-03-25T04:13:12;19.52;;;8.35;;
66175;SDS011;52977;44.816;20.538;2024-03-25T04:15:39;21.88;;;8.75;;
66175;SDS011;52977;44.816;20.538;2024-03-25T04:18:08;18.75;;;8.52;;
66175;SDS011;52977;44.816;20.538;2024-03-25T04:20:37;20.67;;;8.13;;
66175;SDS011;52977;44.816;20.538;2024-03-25T04:23:05;23.48;;;8.73;;
66175;SDS011;52977;44.816;20.538;2024-03-25T04:25:33;19.95;;;8.88;;
66175;SDS011;52977;44.816;20.538;2024-03-25T04:28:01;22.42;;;9.13;;
66175;SDS011;52977;44.816;20.538;2024-03-25T04:30:26;20.63;;;8.88;;
66175;SDS011;52977;44.816;20.538;2024-03-25T04:32:53;20.08;;;8.90;;
66175;SDS011;52977;44.816;20.538;2024-03-25T04:35:19;21.92;;;9.02;;
66175;SDS011;52977;44.816;20.538;2024-03-25T04:37:46;20.35;;;9.07;;
66175;SDS011;52977;44.816;20.538;2024-03-25T04:40:12;19.58;;;8.50;;
66175;SDS011;52977;44.816;20.538;2024-03-25T04:42:45;20.13;;;9.57;;
66175;SDS011;52977;44.816;20.538;2024-03-25T04:45:12;20.67;;;9.40;;
66175;SDS011;52977;44.816;20.538;2024-03-25T04:47:39;22.00;;;9.75;;
66175;SDS011;52977;44.816;20.538;2024-03-25T04:50:06;21.95;;;8.57;;
66175;SDS011;52977;44.816;20.538;2024-03-25T04:52:34;22.35;;;9.60;;
66175;SDS011;52977;44.816;20.538;2024-03-25T04:55:00;25.10;;;10.10;;
66175;SDS011;52977;44.816;20.538;2024-03-25T04:57:26;23.83;;;9.50;;
66175;SDS011;52977;44.816;20.538;2024-03-25T04:59:53;22.48;;;9.73;;
66175;SDS011;52977;44.816;20.538;2024-03-25T05:02:20;25.20;;;9.98;;
66175;SDS011;52977;44.816;20.538;2024-03-25T05:04:46;26.70;;;10.63;;
66175;SDS011;52977;44.816;20.538;2024-03-25T05:07:13;22.73;;;9.93;;
66175;SDS011;52977;44.816;20.538;2024-03-25T05:09:40;23.55;;;9.85;;
66175;SDS011;52977;44.816;20.538;2024-03-25T05:12:07;21.52;;;8.50;;
66175;SDS011;52977;44.816;20.538;2024-03-25T05:14:33;20.20;;;9.60;;
66175;SDS011;52977;44.816;20.538;2024-03-25T05:17:00;29.05;;;11.07;;
66175;SDS011;52977;44.816;20.538;2024-03-25T05:19:30;25.65;;;9.18;;
66175;SDS011;52977;44.816;20.538;2024-03-25T05:21:57;22.45;;;10.00;;
66175;SDS011;52977;44.816;20.538;2024-03-25T05:24:23;20.85;;;10.05;;
66175;SDS011;52977;44.816;20.538;2024-03-25T05:26:50;20.95;;;9.40;;
66175;SDS011;52977;44.816;20.538;2024-03-25T05:29:16;22.42;;;9.82;;
66175;SDS011;52977;44.816;20.538;2024-03-25T05:31:55;21.55;;;8.80;;
66175;SDS011;52977;44.816;20.538;2024-03-25T05:34:26;21.13;;;8.80;;
66175;SDS011;52977;44.816;20.538;2024-03-25T05:36:54;18.63;;;9.20;;
66175;SDS011;52977;44.816;20.538;2024-03-25T05:39:21;24.50;;;8.93;;
66175;SDS011;52977;44.816;20.538;2024-03-25T05:41:48;23.02;;;9.38;;
66175;SDS011;52977;44.816;20.538;2024-03-25T05:44:14;22.98;;;9.82;;
66175;SDS011;52977;44.816;20.538;2024-03-25T05:46:41;23.88;;;9.77;;
66175;SDS011;52977;44.816;20.538;2024-03-25T05:49:08;18.13;;;8.38;;
66175;SDS011;52977;44.816;20.538;2024-03-25T05:51:34;17.92;;;7.90;;
66175;SDS011;52977;44.816;20.538;2024-03-25T05:54:01;22.95;;;8.18;;
66175;SDS011;52977;44.816;20.538;2024-03-25T05:56:27;20.80;;;7.93;;
66175;SDS011;52977;44.816;20.538;2024-03-25T05:58:59;18.00;;;7.88;;
66175;SDS011;52977;44.816;20.538;2024-03-25T06:01:25;24.92;;;9.73;;
66175;SDS011;52977;44.816;20.538;2024-03-25T06:03:52;25.60;;;10.73;;
66175;SDS011;52977;44.816;20.538;2024-03-25T06:06:20;27.20;;;10.32;;
66175;SDS011;52977;44.816;20.538;2024-03-25T06:08:46;19.75;;;9.88;;
66175;SDS011;52977;44.816;20.538;2024-03-25T06:11:13;26.95;;;10.85;;
66175;SDS011;52977;44.816;20.538;2024-03-25T06:13:40;24.42;;;11.07;;
66175;SDS011;52977;44.816;20.538;2024-03-25T06:16:06;22.30;;;10.02;;
66175;SDS011;52977;44.816;20.538;2024-03-25T06:18:33;21.33;;;9.38;;
66175;SDS011;52977;44.816;20.538;2024-03-25T06:20:59;19.80;;;9.48;;
66175;SDS011;52977;44.816;20.538;2024-03-25T06:23:26;22.48;;;9.30;;
66175;SDS011;52977;44.816;20.538;2024-03-25T06:25:54;20.73;;;10.13;;
66175;SDS011;52977;44.816;20.538;2024-03-25T06:28:22;25.40;;;10.70;;
66175;SDS011;52977;44.816;20.538;2024-03-25T06:30:49;28.23;;;11.13;;
66175;SDS011;52977;44.816;20.538;2024-03-25T06:33:34;25.65;;;11.43;;
66175;SDS011;52977;44.816;20.538;2024-03-25T06:36:18;33.75;;;15.05;;
66175;SDS011;52977;44.816;20.538;2024-03-25T06:38:45;28.65;;;13.48;;
66175;SDS011;52977;44.816;20.538;2024-03-25T06:41:10;27.40;;;11.68;;
66175;SDS011;52977;44.816;20.538;2024-03-25T06:43:37;29.75;;;12.60;;
66175;SDS011;52977;44.816;20.538;2024-03-25T06:46:06;26.30;;;12.52;;
66175;SDS011;52977;44.816;20.538;2024-03-25T06:48:32;27.13;;;11.55;;
66175;SDS011;52977;44.816;20.538;2024-03-25T06:51:04;25.85;;;10.30;;
66175;SDS011;52977;44.816;20.538;2024-03-25T06:53:29;21.00;;;9.45;;
66175;SDS011;52977;44.816;20.538;2024-03-25T06:55:56;23.35;;;9.75;;
66175;SDS011;52977;44.816;20.538;2024-03-25T06:58:25;21.90;;;9.35;;
66175;SDS011;52977;44.816;20.538;2024-03-25T07:00:54;19.95;;;8.90;;
66175;SDS011;52977;44.816;20.538;2024-03-25T07:03:22;25.77;;;9.88;;
66175;SDS011;52977;44.816;20.538;2024-03-25T07:05:50;24.95;;;10.13;;
66175;SDS011;52977;44.816;20.538;2024-03-25T07:08:21;22.45;;;8.88;;
66175;SDS011;52977;44.816;20.538;2024-03-25T07:10:47;23.50;;;9.25;;
66175;SDS011;52977;44.816;20.538;2024-03-25T07:13:14;17.40;;;7.40;;
66175;SDS011;52977;44.816;20.538;2024-03-25T07:15:42;16.80;;;8.60;;
66175;SDS011;52977;44.816;20.538;2024-03-25T07:18:09;15.30;;;7.32;;
66175;SDS011;52977;44.816;20.538;2024-03-25T07:20:55;18.60;;;8.20;;
66175;SDS011;52977;44.816;20.538;2024-03-25T07:23:21;15.63;;;6.65;;
66175;SDS011;52977;44.816;20.538;2024-03-25T07:25:48;12.90;;;5.85;;
66175;SDS011;52977;44.816;20.538;2024-03-25T07:28:14;14.00;;;5.97;;
66175;SDS011;52977;44.816;20.538;2024-03-25T07:30:41;17.67;;;6.20;;
66175;SDS011;52977;44.816;20.538;2024-03-25T07:33:08;14.27;;;6.20;;
66175;SDS011;52977;44.816;20.538;2024-03-25T07:35:34;15.13;;;6.05;;
66175;SDS011;52977;44.816;20.538;2024-03-25T07:38:02;17.52;;;6.63;;
66175;SDS011;52977;44.816;20.538;2024-03-25T07:40:28;16.27;;;6.75;;
66175;SDS011;52977;44.816;20.538;2024-03-25T07:42:54;17.83;;;7.03;;
66175;SDS011;52977;44.816;20.538;2024-03-25T07:45:21;18.58;;;7.28;;
66175;SDS011;52977;44.816;20.538;2024-03-25T07:47:46;11.70;;;5.90;;
66175;SDS011;52977;44.816;20.538;2024-03-25T07:50:12;16.02;;;6.40;;
66175;SDS011;52977;44.816;20.538;2024-03-25T07:52:39;17.92;;;7.13;;
66175;SDS011;52977;44.816;20.538;2024-03-25T07:55:08;13.70;;;6.60;;
66175;SDS011;52977;44.816;20.538;2024-03-25T07:57:35;15.25;;;6.53;;
66175;SDS011;52977;44.816;20.538;2024-03-25T08:00:02;15.80;;;6.32;;
66175;SDS011;52977;44.816;20.538;2024-03-25T08:02:37;15.48;;;6.45;;
66175;SDS011;52977;44.816;20.538;2024-03-25T08:05:03;16.35;;;6.55;;
66175;SDS011;52977;44.816;20.538;2024-03-25T08:07:29;14.23;;;5.70;;
66175;SDS011;52977;44.816;20.538;2024-03-25T08:09:55;13.75;;;6.07;;
66175;SDS011;52977;44.816;20.538;2024-03-25T08:12:22;15.25;;;6.15;;
66175;SDS011;52977;44.816;20.538;2024-03-25T08:14:49;14.35;;;7.05;;
66175;SDS011;52977;44.816;20.538;2024-03-25T08:17:15;17.80;;;6.30;;
66175;SDS011;52977;44.816;20.538;2024-03-25T08:19:41;12.73;;;5.45;;
66175;SDS011;52977;44.816;20.538;2024-03-25T08:22:08;13.30;;;5.15;;
66175;SDS011;52977;44.816;20.538;2024-03-25T08:24:34;15.75;;;5.35;;
66175;SDS011;52977;44.816;20.538;2024-03-25T08:27:01;11.32;;;5.15;;
66175;SDS011;52977;44.816;20.538;2024-03-25T08:29:29;13.68;;;5.70;;
66175;SDS011;52977;44.816;20.538;2024-03-25T08:31:55;15.13;;;5.88;;
66175;SDS011;52977;44.816;20.538;2024-03-25T08:34:22;15.70;;;6.07;;
66175;SDS011;52977;44.816;20.538;2024-03-25T08:36:48;11.38;;;4.70;;
66175;SDS011;52977;44.816;20.538;2024-03-25T08:39:14;11.43;;;5.38;;
66175;SDS011;52977;44.816;20.538;2024-03-25T08:41:41;13.45;;;5.30;;
66175;SDS011;52977;44.816;20.538;2024-03-25T08:44:08;11.50;;;5.00;;
66175;SDS011;52977;44.816;20.538;2024-03-25T08:46:34;11.07;;;5.05;;
66175;SDS011;52977;44.816;20.538;2024-03-25T08:49:01;8.73;;;3.92;;
66175;SDS011;52977;44.816;20.538;2024-03-25T08:51:27;10.88;;;3.97;;
66175;SDS011;52977;44.816;20.538;2024-03-25T08:53:55;12.57;;;4.30;;
66175;SDS011;52977;44.816;20.538;2024-03-25T08:56:21;7.35;;;2.92;;
66175;SDS011;52977;44.816;20.538;2024-03-25T08:58:48;13.32;;;4.25;;
66175;SDS011;52977;44.816;20.538;2024-03-25T09:01:14;10.52;;;4.32;;
66175;SDS011;52977;44.816;20.538;2024-03-25T09:03:42;10.30;;;4.03;;
66175;SDS011;52977;44.816;20.538;2024-03-25T09:06:08;14.88;;;4.45;;
66175;SDS011;52977;44.816;20.538;2024-03-25T09:08:35;13.13;;;4.38;;
66175;SDS011;52977;44.816;20.538;2024-03-25T09:11:20;13.15;;;4.95;;
66175;SDS011;52977;44.816;20.538;2024-03-25T09:13:50;11.65;;;4.55;;
66175;SDS011;52977;44.816;20.538;2024-03-25T09:16:17;14.60;;;5.82;;
66175;SDS011;52977;44.816;20.538;2024-03-25T09:18:44;13.88;;;5.10;;
66175;SDS011;52977;44.816;20.538;2024-03-25T09:21:11;10.70;;;5.32;;
66175;SDS011;52977;44.816;20.538;2024-03-25T09:23:41;11.88;;;4.85;;
66175;SDS011;52977;44.816;20.538;2024-03-25T09:26:07;10.75;;;4.03;;
66175;SDS011;52977;44.816;20.538;2024-03-25T09:28:37;10.55;;;4.43;;
66175;SDS011;52977;44.816;20.538;2024-03-25T09:31:04;11.13;;;4.75;;
66175;SDS011;52977;44.816;20.538;2024-03-25T09:33:32;8.70;;;3.95;;
66175;SDS011;52977;44.816;20.538;2024-03-25T09:35:59;9.63;;;4.30;;
66175;SDS011;52977;44.816;20.538;2024-03-25T09:38:26;12.23;;;4.18;;
66175;SDS011;52977;44.816;20.538;2024-03-25T09:40:53;10.55;;;4.40;;
66175;SDS011;52977;44.816;20.538;2024-03-25T09:43:32;9.63;;;4.13;;
66175;SDS011;52977;44.816;20.538;2024-03-25T09:46:08;10.98;;;4.45;;
66175;SDS011;52977;44.816;20.538;2024-03-25T09:48:36;7.60;;;3.47;;
66175;SDS011;52977;44.816;20.538;2024-03-25T09:51:06;9.88;;;3.85;;
66175;SDS011;52977;44.816;20.538;2024-03-25T09:53:35;7.85;;;3.60;;
66175;SDS011;52977;44.816;20.538;2024-03-25T09:56:02;7.70;;;3.33;;
66175;SDS011;52977;44.816;20.538;2024-03-25T09:58:29;7.28;;;3.40;;
66175;SDS011;52977;44.816;20.538;2024-03-25T10:00:59;7.47;;;3.85;;
66175;SDS011;52977;44.816;20.538;2024-03-25T10:03:26;7.72;;;3.60;;
66175;SDS011;52977;44.816;20.538;2024-03-25T10:05:53;10.73;;;3.90;;
66175;SDS011;52977;44.816;20.538;2024-03-25T10:08:20;8.57;;;3.95;;
66175;SDS011;52977;44.816;20.538;2024-03-25T10:10:47;7.50;;;3.50;;
66175;SDS011;52977;44.816;20.538;2024-03-25T10:13:15;9.95;;;3.80;;
66175;SDS011;52977;44.816;20.538;2024-03-25T10:15:43;10.35;;;3.38;;
66175;SDS011;52977;44.816;20.538;2024-03-25T10:18:14;10.68;;;4.30;;
66175;SDS011;52977;44.816;20.538;2024-03-25T10:20:50;10.48;;;3.97;;
66175;SDS011;52977;44.816;20.538;2024-03-25T10:23:20;8.88;;;3.90;;
66175;SDS011;52977;44.816;20.538;2024-03-25T10:25:51;8.38;;;3.95;;
66175;SDS011;52977;44.816;20.538;2024-03-25T10:28:19;7.68;;;3.97;;
66175;SDS011;52977;44.816;20.538;2024-03-25T10:30:46;9.30;;;3.38;;
66175;SDS011;52977;44.816;20.538;2024-03-25T10:33:13;8.55;;;3.13;;
66175;SDS011;52977;44.816;20.538;2024-03-25T10:35:40;5.50;;;2.63;;
66175;SDS011;52977;44.816;20.538;2024-03-25T10:38:07;8.35;;;3.20;;
66175;SDS011;52977;44.816;20.538;2024-03-25T10:40:37;8.45;;;3.58;;
66175;SDS011;52977;44.816;20.538;2024-03-25T10:43:08;6.97;;;3.13;;
66175;SDS011;52977;44.816;20.538;2024-03-25T10:45:49;7.15;;;3.60;;
66175;SDS011;52977;44.816;20.538;2024-03-25T10:50:55;10.90;;;3.88;;
66175;SDS011;52977;44.816;20.538;2024-03-25T10:53:22;6.05;;;3.00;;
66175;SDS011;52977;44.816;20.538;2024-03-25T10:55:53;10.00;;;3.53;;
66175;SDS011;52977;44.816;20.538;2024-03-25T10:58:21;9.02;;;2.95;;
66175;SDS011;52977;44.816;20.538;2024-03-25T11:00:48;7.35;;;3.22;;
66175;SDS011;52977;44.816;20.538;2024-03-25T11:03:16;8.68;;;3.38;;
66175;SDS011;52977;44.816;20.538;2024-03-25T11:05:43;7.63;;;3.00;;
66175;SDS011;52977;44.816;20.538;2024-03-25T11:08:11;7.47;;;2.72;;
66175;SDS011;52977;44.816;20.538;2024-03-25T11:10:44;8.85;;;3.30;;
66175;SDS011;52977;44.816;20.538;2024-03-25T11:13:18;5.22;;;2.30;;
66175;SDS011;52977;44.816;20.538;2024-03-25T11:15:46;7.18;;;2.17;;
66175;SDS011;52977;44.816;20.538;2024-03-25T11:18:15;7.93;;;2.83;;
66175;SDS011;52977;44.816;20.538;2024-03-25T11:20:43;6.50;;;2.63;;
66175;SDS011;52977;44.816;20.538;2024-03-25T11:23:10;9.63;;;2.88;;
66175;SDS011;52977;44.816;20.538;2024-03-25T11:25:39;4.95;;;2.58;;
66175;SDS011;52977;44.816;20.538;2024-03-25T11:28:10;6.15;;;2.78;;
66175;SDS011;52977;44.816;20.538;2024-03-25T11:30:36;5.30;;;2.28;;
66175;SDS011;52977;44.816;20.538;2024-03-25T11:33:04;5.53;;;2.30;;
66175;SDS011;52977;44.816;20.538;2024-03-25T11:35:36;6.45;;;2.30;;
66175;SDS011;52977;44.816;20.538;2024-03-25T11:38:04;5.13;;;2.40;;
66175;SDS011;52977;44.816;20.538;2024-03-25T11:40:30;6.28;;;2.30;;
66175;SDS011;52977;44.816;20.538;2024-03-25T11:42:58;6.43;;;2.65;;
66175;SDS011;52977;44.816;20.538;2024-03-25T11:45:24;7.13;;;2.35;;
66175;SDS011;52977;44.816;20.538;2024-03-25T11:47:51;5.72;;;2.45;;
66175;SDS011;52977;44.816;20.538;2024-03-25T11:50:18;9.15;;;2.30;;
66175;SDS011;52977;44.816;20.538;2024-03-25T11:52:45;7.95;;;2.83;;
66175;SDS011;52977;44.816;20.538;2024-03-25T11:55:18;7.43;;;2.30;;
66175;SDS011;52977;44.816;20.538;2024-03-25T11:57:54;5.30;;;2.40;;
66175;SDS011;52977;44.816;20.538;2024-03-25T12:00:23;7.82;;;2.50;;
66175;SDS011;52977;44.816;20.538;2024-03-25T12:02:49;5.35;;;2.03;;
66175;SDS011;52977;44.816;20.538;2024-03-25T12:05:17;4.35;;;1.90;;
66175;SDS011;52977;44.816;20.538;2024-03-25T12:07:44;5.90;;;1.95;;
66175;SDS011;52977;44.816;20.538;2024-03-25T12:10:11;6.80;;;2.20;;
66175;SDS011;52977;44.816;20.538;2024-03-25T12:12:56;4.22;;;2.00;;
66175;SDS011;52977;44.816;20.538;2024-03-25T12:15:23;4.00;;;1.67;;
66175;SDS011;52977;44.816;20.538;2024-03-25T12:17:50;3.03;;;1.30;;
66175;SDS011;52977;44.816;20.538;2024-03-25T12:20:17;3.60;;;1.30;;
66175;SDS011;52977;44.816;20.538;2024-03-25T12:22:44;5.85;;;2.15;;
66175;SDS011;52977;44.816;20.538;2024-03-25T12:25:11;5.90;;;1.73;;
66175;SDS011;52977;44.816;20.538;2024-03-25T12:27:38;4.25;;;1.40;;
66175;SDS011;52977;44.816;20.538;2024-03-25T12:30:24;3.85;;;1.50;;
66175;SDS011;52977;44.816;20.538;2024-03-25T12:32:51;4.72;;;1.58;;
66175;SDS011;52977;44.816;20.538;2024-03-25T12:35:18;4.80;;;2.20;;
66175;SDS011;52977;44.816;20.538;2024-03-25T12:37:46;6.82;;;2.50;;
66175;SDS011;52977;44.816;20.538;2024-03-25T12:40:24;6.10;;;2.38;;
66175;SDS011;52977;44.816;20.538;2024-03-25T12:42:53;6.20;;;1.92;;
66175;SDS011;52977;44.816;20.538;2024-03-25T12:45:20;4.55;;;1.80;;
66175;SDS011;52977;44.816;20.538;2024-03-25T12:47:50;3.28;;;1.25;;
66175;SDS011;52977;44.816;20.538;2024-03-25T12:50:16;3.15;;;1.30;;
66175;SDS011;52977;44.816;20.538;2024-03-25T12:52:43;4.18;;;2.00;;
66175;SDS011;52977;44.816;20.538;2024-03-25T12:55:09;7.55;;;3.22;;
66175;SDS011;52977;44.816;20.538;2024-03-25T12:57:36;8.15;;;3.47;;
66175;SDS011;52977;44.816;20.538;2024-03-25T13:00:03;5.40;;;2.38;;
66175;SDS011;52977;44.816;20.538;2024-03-25T13:02:49;3.28;;;1.30;;
66175;SDS011;52977;44.816;20.538;2024-03-25T13:05:16;6.35;;;1.50;;
66175;SDS011;52977;44.816;20.538;2024-03-25T13:07:42;5.63;;;1.77;;
66175;SDS011;52977;44.816;20.538;2024-03-25T13:10:09;3.70;;;1.50;;
66175;SDS011;52977;44.816;20.538;2024-03-25T13:12:35;4.43;;;1.63;;
66175;SDS011;52977;44.816;20.538;2024-03-25T13:15:01;5.47;;;1.70;;
66175;SDS011;52977;44.816;20.538;2024-03-25T13:17:28;5.13;;;1.80;;
66175;SDS011;52977;44.816;20.538;2024-03-25T13:19:55;5.40;;;2.05;;
66175;SDS011;52977;44.816;20.538;2024-03-25T13:22:22;5.03;;;2.00;;
66175;SDS011;52977;44.816;20.538;2024-03-25T13:24:48;3.97;;;1.75;;
66175;SDS011;52977;44.816;20.538;2024-03-25T13:27:16;5.15;;;1.92;;
66175;SDS011;52977;44.816;20.538;2024-03-25T13:29:42;7.47;;;2.45;;
66175;SDS011;52977;44.816;20.538;2024-03-25T13:32:09;8.05;;;3.22;;
66175;SDS011;52977;44.816;20.538;2024-03-25T13:34:35;7.70;;;2.40;;
66175;SDS011;52977;44.816;20.538;2024-03-25T13:37:02;7.97;;;2.20;;
66175;SDS011;52977;44.816;20.538;2024-03-25T13:39:28;5.30;;;2.28;;
66175;SDS011;52977;44.816;20.538;2024-03-25T13:41:55;7.40;;;2.10;;
66175;SDS011;52977;44.816;20.538;2024-03-25T13:44:21;7.22;;;2.47;;
66175;SDS011;52977;44.816;20.538;2024-03-25T13:46:48;5.22;;;2.20;;
66175;SDS011;52977;44.816;20.538;2024-03-25T13:49:14;5.22;;;1.60;;
66175;SDS011;52977;44.816;20.538;2024-03-25T13:51:43;4.63;;;1.48;;
66175;SDS011;52977;44.816;20.538;2024-03-25T13:54:09;5.80;;;1.90;;
66175;SDS011;52977;44.816;20.538;2024-03-25T13:56:36;4.80;;;1.58;;
66175;SDS011;52977;44.816;20.538;2024-03-25T13:59:02;4.20;;;1.45;;
66175;SDS011;52977;44.816;20.538;2024-03-25T14:01:29;6.53;;;1.45;;
66175;SDS011;52977;44.816;20.538;2024-03-25T14:03:55;3.28;;;1.10;;
66175;SDS011;52977;44.816;20.538;2024-03-25T14:06:22;10.15;;;1.40;;
66175;SDS011;52977;44.816;20.538;2024-03-25T14:08:49;4.35;;;1.35;;
66175;SDS011;52977;44.816;20.538;2024-03-25T14:11:15;2.10;;;0.90;;
66175;SDS011;52977;44.816;20.538;2024-03-25T14:13:42;2.28;;;0.85;;
66175;SDS011;52977;44.816;20.538;2024-03-25T14:16:08;2.20;;;0.90;;
66175;SDS011;52977;44.816;20.538;2024-03-25T14:18:35;3.15;;;1.33;;
66175;SDS011;52977;44.816;20.538;2024-03-25T14:21:02;5.28;;;1.40;;
66175;SDS011;52977;44.816;20.538;2024-03-25T14:23:28;2.78;;;1.20;;
66175;SDS011;52977;44.816;20.538;2024-03-25T14:25:55;5.45;;;1.98;;
66175;SDS011;52977;44.816;20.538;2024-03-25T14:28:21;6.75;;;1.27;;
66175;SDS011;52977;44.816;20.538;2024-03-25T14:30:48;3.13;;;1.25;;